EDT,Max TemperatureF,Mean TemperatureF,Min TemperatureF,Max Dew PointF,MeanDew PointF,Min DewpointF,Max Humidity, Mean Humidity, Min Humidity, Max Sea Level PressureIn, Mean Sea Level PressureIn, Min Sea Level PressureIn, Max VisibilityMiles, Mean VisibilityMiles, Min VisibilityMiles, Max Wind SpeedMPH, Mean Wind SpeedMPH, Max Gust SpeedMPH,PrecipitationIn, CloudCover, Events, WindDirDegrees
2012-10-1,70,60,50,52,50,46,93,74,52,29.95,29.82,29.75,10,10,10,20,8,30,0.00,0,,246
2012-10-2,73,62,51,61,55,49,94,82,53,30.05,30.02,29.95,10,9,3,10,2,,0.14,4,Rain,221
2012-10-3,69,64,60,67,62,57,100,95,88,30.13,30.06,30.02,7,2,0,7,3,,0.07,8,Fog-Rain,35
2012-10-4,64,62,60,61,60,59,100,94,87,30.13,30.09,30.02,10,4,1,7,2,,0.04,8,Rain,357
2012-10-5,77,68,60,61,60,54,97,84,46,30.03,29.99,29.93,10,6,0,8,2,,0.00,4,Fog,263
2012-10-6,75,64,53,65,58,45,100,90,66,29.93,29.86,29.76,10,4,0,24,3,29,0.03,2,Fog-Rain,217
2012-10-7,62,52,44,49,45,39,94,79,48,30.07,30.03,29.94,10,8,2,8,3,,0.11,5,Rain,303
2012-10-8,59,49,41,48,44,40,96,80,57,30.30,30.20,30.06,10,10,5,6,3,,0.05,3,Rain,336
2012-10-9,57,54,50,52,50,47,94,88,80,30.28,30.19,30.10,10,8,2,15,7,21,0.06,8,Rain,44
2012-10-10,64,58,53,61,56,50,100,92,80,30.10,29.93,29.73,10,7,2,15,6,22,0.15,7,Rain,78
2012-10-11,60,50,41,42,37,35,93,63,41,30.15,30.05,29.84,10,10,10,15,9,24,0.00,0,,276
2012-10-12,59,48,37,46,37,25,93,70,49,30.36,30.12,30.02,10,10,10,12,4,18,0.01,2,Rain,307
2012-10-13,52,41,30,36,27,23,82,59,34,30.48,30.41,30.33,10,10,10,13,3,17,0.00,0,,273
2012-10-14,66,50,37,59,51,36,93,77,65,30.32,30.12,29.99,10,10,10,24,10,33,0.01,5,Rain,222
2012-10-15,72,66,62,64,61,59,94,84,73,29.97,29.77,29.62,10,10,6,21,15,29,0.00,6,Rain,207
2012-10-16,64,50,37,61,47,35,94,76,45,29.86,29.66,29.56,10,10,5,17,7,28,0.08,4,Rain,270
2012-10-17,62,47,33,42,37,31,93,71,35,30.01,29.94,29.88,10,10,10,6,3,,0.00,0,,263
2012-10-18,64,50,36,52,45,35,100,83,56,30.11,30.07,30.02,10,8,2,13,3,17,0.00,0,,129
2012-10-19,72,58,46,68,59,46,100,86,63,30.06,29.89,29.75,10,8,2,21,7,31,0.06,7,Rain,139
2012-10-20,72,64,55,67,62,47,100,89,64,29.77,29.70,29.64,10,6,1,20,9,28,0.07,5,Rain-Thunderstorm,203
2012-10-21,64,52,41,45,41,39,93,64,41,29.91,29.86,29.78,10,10,10,16,6,22,0.00,1,,261
2012-10-22,66,56,46,45,42,41,83,61,40,30.00,29.94,29.89,10,10,10,21,9,26,0.00,0,,273
2012-10-23,69,55,42,52,45,39,93,69,38,30.10,30.06,30.01,10,10,5,10,3,,0.07,2,Rain,253
2012-10-24,55,51,48,52,45,42,93,77,64,30.21,30.16,30.11,10,10,9,8,2,,0.01,8,Rain,26
2012-10-25,64,50,37,45,40,36,100,75,38,30.30,30.26,30.22,10,10,7,10,1,,0.00,0,,159
2012-10-26,66,52,37,49,43,36,97,77,42,30.26,30.20,30.13,10,10,8,10,2,,0.00,0,,168
2012-10-27,68,52,39,53,45,39,100,82,52,30.12,30.04,29.97,10,8,0,9,2,,0.00,1,Fog,44
2012-10-28,59,56,52,52,51,47,94,88,75,29.97,29.84,29.68,10,7,2,22,11,34,0.02,8,Rain,44
2012-10-29,66,60,53,63,56,51,94,89,80,29.67,29.36,29.07,10,4,1,37,22,55,0.58,8,Rain,65
2012-10-30,66,58,51,59,56,52,100,88,75,29.56,29.49,29.31,10,5,0,18,10,36,0.75,7,Fog-Rain-Thunderstorm,129
2012-10-31,55,52,46,54,50,42,100,87,69,29.58,29.51,29.46,10,7,0,10,3,17,0.05,5,Fog-Rain,227